createdAt,value
2022-12-17T00:02:43.037Z,49.77
2022-12-17T00:05:28.468Z,49.74
2022-12-17T00:08:17.470Z,49.81
2022-12-17T00:11:03.403Z,49.98
2022-12-17T00:13:50.614Z,49.61
2022-12-17T00:16:37.536Z,49.90
2022-12-17T00:19:23.245Z,49.75
2022-12-17T00:22:08.830Z,49.82
2022-12-17T00:24:56.379Z,49.87
2022-12-17T00:27:42.126Z,50.03
2022-12-17T00:30:29.958Z,50.14
2022-12-17T00:33:15.728Z,49.84
2022-12-17T00:36:01.652Z,49.79
2022-12-17T00:38:47.782Z,49.96
2022-12-17T00:41:33.291Z,49.90
2022-12-17T00:44:22.250Z,49.81
2022-12-17T00:47:09.697Z,49.87
2022-12-17T00:49:56.450Z,49.96
2022-12-17T00:52:41.946Z,49.90
2022-12-17T00:55:42.684Z,49.87
2022-12-17T00:58:28.202Z,50.00
2022-12-17T01:01:17.754Z,49.72
2022-12-17T01:04:05.286Z,50.29
2022-12-17T01:06:51.180Z,50.14
2022-12-17T01:09:37.682Z,50.31
2022-12-17T01:12:23.891Z,50.34
2022-12-17T01:15:10.021Z,50.47
2022-12-17T01:17:56.188Z,50.29
2022-12-17T01:20:44.126Z,50.29
2022-12-17T01:23:30.345Z,50.27
2022-12-17T01:26:16.926Z,50.11
2022-12-17T01:29:02.599Z,49.94
2022-12-17T01:31:48.407Z,50.19
2022-12-17T01:34:33.719Z,50.15
2022-12-17T01:37:20.736Z,49.77
2022-12-17T01:40:06.178Z,50.19
2022-12-17T01:42:57.307Z,50.02
2022-12-17T01:45:44.340Z,50.11
2022-12-17T01:48:33.849Z,49.96
2022-12-17T01:51:20.990Z,49.81
2022-12-17T01:54:10.017Z,49.87
2022-12-17T01:56:59.404Z,50.22
2022-12-17T01:59:55.534Z,49.80
2022-12-17T02:02:41.596Z,50.13
2022-12-17T02:05:27.192Z,50.21
2022-12-17T02:08:22.460Z,50.25
2022-12-17T02:11:16.243Z,50.55
2022-12-17T02:14:14.994Z,50.27
2022-12-17T02:17:08.580Z,50.40
2022-12-17T02:20:01.923Z,50.39
2022-12-17T02:23:06.859Z,50.32
2022-12-17T02:26:01.868Z,50.28
2022-12-17T02:28:50.230Z,50.49
2022-12-17T02:31:36.173Z,50.50
2022-12-17T02:34:21.891Z,50.81
2022-12-17T02:37:22.135Z,50.45
2022-12-17T02:40:08.171Z,50.49
2022-12-17T02:42:54.630Z,50.37
2022-12-17T02:45:39.389Z,50.28
2022-12-17T02:48:27.129Z,50.59
2022-12-17T02:51:13.250Z,50.48
2022-12-17T02:54:02.313Z,50.50
2022-12-17T02:56:48.178Z,50.51
2022-12-17T02:59:34.693Z,50.52
2022-12-17T03:02:22.123Z,50.66
2022-12-17T03:05:35.542Z,50.30
2022-12-17T03:08:13.030Z,50.42
2022-12-17T03:10:58.219Z,50.34
2022-12-17T03:13:44.833Z,50.23
2022-12-17T03:16:37.425Z,50.10
2022-12-17T03:19:25.005Z,50.28
2022-12-17T03:22:10.370Z,50.49
2022-12-17T03:24:55.534Z,50.35
2022-12-17T03:27:40.710Z,50.68
2022-12-17T03:30:26.934Z,50.93
2022-12-17T03:33:12.667Z,50.41
2022-12-17T03:35:59.698Z,50.58
2022-12-17T03:38:44.912Z,50.48
2022-12-17T03:41:30.757Z,50.42
2022-12-17T03:44:15.889Z,50.42
2022-12-17T03:47:01.090Z,50.49
2022-12-17T03:49:46.639Z,50.38
2022-12-17T03:52:35.628Z,50.33
2022-12-17T03:55:21.008Z,50.59
2022-12-17T03:58:06.324Z,50.27
2022-12-17T04:00:51.510Z,50.51
2022-12-17T04:03:37.150Z,50.44
2022-12-17T04:06:23.539Z,50.41
2022-12-17T04:09:10.653Z,50.02
2022-12-17T04:11:56.049Z,49.97
2022-12-17T04:14:41.313Z,50.30
2022-12-17T04:17:26.716Z,50.34
2022-12-17T04:20:11.022Z,50.08
2022-12-17T04:22:56.835Z,50.20
2022-12-17T04:25:46.397Z,50.15
2022-12-17T04:28:31.702Z,50.01
2022-12-17T04:31:16.861Z,49.90
2022-12-17T04:34:02.119Z,50.02
2022-12-17T04:36:47.751Z,50.01
2022-12-17T04:39:37.697Z,50.06
2022-12-17T04:42:24.627Z,49.99
2022-12-17T04:45:10.285Z,49.85
2022-12-17T04:47:58.152Z,49.88
2022-12-17T04:50:43.688Z,50.12
2022-12-17T04:53:29.214Z,49.90
2022-12-17T04:56:14.445Z,50.08
2022-12-17T04:59:01.355Z,50.15
2022-12-17T05:01:46.684Z,50.07
2022-12-17T05:04:32.383Z,50.00
2022-12-17T05:07:17.600Z,49.65
2022-12-17T05:10:03.338Z,49.75
2022-12-17T05:12:49.197Z,49.85
2022-12-17T05:15:35.933Z,49.61
2022-12-17T05:18:25.829Z,49.98
2022-12-17T05:21:11.140Z,49.64
2022-12-17T05:23:56.742Z,49.70
2022-12-17T05:26:44.380Z,49.71
2022-12-17T05:29:30.785Z,49.81
2022-12-17T05:32:17.610Z,49.66
2022-12-17T05:35:03.068Z,49.91
2022-12-17T05:37:48.568Z,49.81
2022-12-17T05:40:34.326Z,49.94
2022-12-17T05:43:21.589Z,49.91
2022-12-17T05:46:07.344Z,49.87
2022-12-17T05:48:54.115Z,49.61
2022-12-17T05:51:40.439Z,49.76
2022-12-17T05:54:26.469Z,49.67
2022-12-17T05:57:12.214Z,50.20
2022-12-17T05:59:57.373Z,50.09
2022-12-17T06:02:43.146Z,49.80
2022-12-17T06:05:30.365Z,50.01
2022-12-17T06:08:21.914Z,49.90
2022-12-17T06:11:07.528Z,49.93
2022-12-17T06:13:52.774Z,50.20
2022-12-17T06:16:38.631Z,50.07
2022-12-17T06:19:23.827Z,49.99
2022-12-17T06:22:10.843Z,50.19
2022-12-17T06:24:56.435Z,50.21
2022-12-17T06:27:41.514Z,50.23
2022-12-17T06:30:28.016Z,49.99
2022-12-17T06:33:22.451Z,50.28
2022-12-17T06:36:07.792Z,50.62
2022-12-17T06:38:54.740Z,50.46
2022-12-17T06:41:39.966Z,50.18
2022-12-17T06:44:25.547Z,50.43
2022-12-17T06:47:10.835Z,50.64
2022-12-17T06:50:01.051Z,50.54
2022-12-17T06:52:46.744Z,50.75
2022-12-17T06:55:33.511Z,50.61
2022-12-17T06:58:19.340Z,50.36
2022-12-17T07:01:04.572Z,50.37
2022-12-17T07:03:50.353Z,50.41
2022-12-17T07:06:35.345Z,50.45
2022-12-17T07:09:20.500Z,50.42
2022-12-17T07:12:07.530Z,50.40
2022-12-17T07:14:53.207Z,50.47
2022-12-17T07:17:42.569Z,50.77
2022-12-17T07:20:29.320Z,50.78
2022-12-17T07:23:17.732Z,50.83
2022-12-17T07:26:03.718Z,50.88
2022-12-17T07:28:51.054Z,50.79
2022-12-17T07:31:37.169Z,51.14
2022-12-17T07:34:22.512Z,50.83
2022-12-17T07:40:11.485Z,51.02
2022-12-17T07:42:58.408Z,51.18
2022-12-17T07:45:45.524Z,51.09
2022-12-17T07:48:31.317Z,51.12
2022-12-17T07:51:17.031Z,51.19
2022-12-17T07:57:02.274Z,50.89
2022-12-17T07:59:47.565Z,51.01
2022-12-17T08:02:43.127Z,51.06
2022-12-17T08:05:29.096Z,51.32
2022-12-17T08:08:14.791Z,51.19
2022-12-17T08:11:03.620Z,51.40
2022-12-17T08:13:48.876Z,51.39
2022-12-17T08:16:34.282Z,51.32
2022-12-17T08:19:22.308Z,51.32
2022-12-17T08:22:08.647Z,51.04
2022-12-17T08:24:54.291Z,51.33
2022-12-17T08:27:40.113Z,51.33
2022-12-17T08:30:26.743Z,51.19
2022-12-17T08:33:12.275Z,51.57
2022-12-17T08:35:59.743Z,51.44
2022-12-17T08:38:47.573Z,51.44
2022-12-17T08:41:41.771Z,51.51
2022-12-17T08:44:27.548Z,51.40
2022-12-17T08:47:13.332Z,51.67
2022-12-17T08:49:58.927Z,51.63
2022-12-17T08:52:46.004Z,51.73
2022-12-17T08:55:31.710Z,51.97
2022-12-17T08:58:18.319Z,51.53
2022-12-17T09:01:03.963Z,52.00
2022-12-17T09:03:49.940Z,51.90
2022-12-17T09:06:39.092Z,51.90
2022-12-17T09:09:35.809Z,52.32
2022-12-17T09:12:22.405Z,51.79
2022-12-17T09:15:07.852Z,52.00
2022-12-17T09:17:53.935Z,52.08
2022-12-17T09:20:39.742Z,51.90
2022-12-17T09:23:25.994Z,51.99
2022-12-17T09:26:15.462Z,52.13
2022-12-17T09:29:01.880Z,52.32
2022-12-17T09:31:49.771Z,52.42
2022-12-17T09:34:35.873Z,52.04
2022-12-17T09:37:21.753Z,52.18
2022-12-17T09:40:07.528Z,52.03
2022-12-17T09:43:00.509Z,52.05
2022-12-17T09:45:51.943Z,52.58
2022-12-17T09:48:44.329Z,52.22
2022-12-17T09:51:40.409Z,52.16
2022-12-17T09:54:42.972Z,52.48
2022-12-17T09:57:46.127Z,52.38
2022-12-17T10:00:39.904Z,52.23
2022-12-17T10:03:31.231Z,52.58
2022-12-17T10:06:23.459Z,52.30
2022-12-17T10:09:12.517Z,52.40
2022-12-17T10:12:01.493Z,52.54
2022-12-17T10:14:47.326Z,52.51
2022-12-17T10:17:36.726Z,52.08
2022-12-17T10:20:33.483Z,52.06
2022-12-17T10:23:19.286Z,52.12
2022-12-17T10:26:10.550Z,52.38
2022-12-17T10:28:57.318Z,52.24
2022-12-17T10:31:47.917Z,51.99
2022-12-17T10:34:45.730Z,52.05
2022-12-17T10:37:39.090Z,52.07
2022-12-17T10:40:45.154Z,51.99
2022-12-17T10:43:47.123Z,51.81
2022-12-17T10:49:45.537Z,52.02
2022-12-17T10:52:43.028Z,51.75
2022-12-17T10:55:42.129Z,51.75
2022-12-17T11:01:39.598Z,51.77
2022-12-17T11:04:48.750Z,51.68
2022-12-17T11:07:41.696Z,51.42
2022-12-17T11:10:34.851Z,51.29
2022-12-17T11:13:25.012Z,51.69
2022-12-17T11:16:13.181Z,51.72
2022-12-17T11:19:09.758Z,51.34
2022-12-17T11:22:02.937Z,51.20
2022-12-17T11:24:58.016Z,51.29
2022-12-17T11:30:49.295Z,51.41
2022-12-17T11:33:40.319Z,51.10
2022-12-17T11:36:38.730Z,51.17
2022-12-17T11:39:48.847Z,51.04
2022-12-17T11:42:43.490Z,51.14
2022-12-17T11:45:45.949Z,50.84
2022-12-17T11:55:22.575Z,50.13
2022-12-17T12:05:26.021Z,50.25
2022-12-17T12:11:33.103Z,50.06
2022-12-17T12:25:41.778Z,49.42
2022-12-17T12:32:20.986Z,49.15
2022-12-17T12:35:14.818Z,49.20
2022-12-17T12:38:01.431Z,49.25
2022-12-17T12:40:54.979Z,48.75
2022-12-17T12:43:44.143Z,48.66
2022-12-17T12:46:37.295Z,48.85
2022-12-17T12:49:35.545Z,48.45
2022-12-17T12:55:31.945Z,48.24
2022-12-17T12:58:23.206Z,48.39
2022-12-17T13:01:12.486Z,48.35
2022-12-17T13:04:10.448Z,48.08
2022-12-17T13:07:03.928Z,48.32
2022-12-17T13:09:41.117Z,47.91
2022-12-17T13:12:28.770Z,47.90
2022-12-17T13:15:10.462Z,47.86
2022-12-17T13:17:44.083Z,47.83
2022-12-17T13:20:34.618Z,47.63
2022-12-17T13:23:26.538Z,47.48
2022-12-17T13:26:38.751Z,47.28
2022-12-17T13:32:31.334Z,47.05
2022-12-17T13:35:15.328Z,47.06
2022-12-17T13:37:56.994Z,47.23
2022-12-17T13:44:07.524Z,46.98
2022-12-17T13:46:47.602Z,46.41
2022-12-17T13:49:21.006Z,46.74
2022-12-17T14:01:13.764Z,46.62
2022-12-17T14:06:37.618Z,46.45
2022-12-17T14:09:09.994Z,46.39
2022-12-17T14:17:46.510Z,46.41
2022-12-17T14:20:28.095Z,46.39
2022-12-17T14:23:02.796Z,46.37
2022-12-17T14:25:35.704Z,46.20
2022-12-17T14:28:06.894Z,46.16
2022-12-17T14:30:46.297Z,46.39
2022-12-17T14:33:29.249Z,46.14
2022-12-17T14:35:59.015Z,46.49
2022-12-17T14:38:38.307Z,46.12
2022-12-17T14:41:34.356Z,46.02
2022-12-17T14:44:03.972Z,46.09
2022-12-17T14:46:35.943Z,45.98
2022-12-17T14:49:17.657Z,45.76
2022-12-17T14:51:46.102Z,45.69
2022-12-17T14:54:20.381Z,45.87
2022-12-17T14:56:50.777Z,45.61
2022-12-17T14:59:27.963Z,45.59
2022-12-17T15:01:57.254Z,45.57
2022-12-17T15:04:29.118Z,45.63
2022-12-17T15:06:57.910Z,45.51
2022-12-17T15:09:26.389Z,45.53
2022-12-17T15:11:55.194Z,45.83
2022-12-17T15:14:24.477Z,45.89
2022-12-17T15:16:53.203Z,46.01
2022-12-17T15:19:25.078Z,45.69
2022-12-17T15:21:58.266Z,45.91
2022-12-17T15:24:27.928Z,46.24
2022-12-17T15:26:58.998Z,46.14
2022-12-17T15:29:27.313Z,45.67
2022-12-17T15:32:29.406Z,45.80
2022-12-17T15:34:58.068Z,45.60
2022-12-17T15:37:31.019Z,45.82
2022-12-17T15:40:00.391Z,45.95
2022-12-17T15:42:46.708Z,45.51
2022-12-17T15:45:15.755Z,45.62
2022-12-17T15:48:04.034Z,45.45
2022-12-17T15:53:17.669Z,45.27
2022-12-17T15:55:45.823Z,45.54
2022-12-17T15:58:28.258Z,45.59
2022-12-17T16:04:11.983Z,45.40
2022-12-17T16:06:48.165Z,45.17
2022-12-17T16:09:18.405Z,45.44
2022-12-17T16:32:53.253Z,46.25
2022-12-17T17:00:04.010Z,46.91
2022-12-17T17:02:33.200Z,47.05
2022-12-17T17:05:02.399Z,46.81
2022-12-17T17:07:30.880Z,47.26
2022-12-17T17:09:59.130Z,47.27
2022-12-17T17:12:27.962Z,47.31
2022-12-17T17:14:56.048Z,47.42
2022-12-17T17:17:54.375Z,47.56
2022-12-17T17:20:16.131Z,47.40
2022-12-17T17:22:46.533Z,47.58
2022-12-17T17:25:14.738Z,47.72
2022-12-17T17:27:43.029Z,47.61
2022-12-17T17:30:12.475Z,47.57
2022-12-17T17:32:42.480Z,47.58
2022-12-17T17:35:11.083Z,47.68
2022-12-17T17:37:39.752Z,47.75
2022-12-17T17:40:09.890Z,47.68
2022-12-17T17:42:38.085Z,47.85
2022-12-17T17:45:08.840Z,47.88
2022-12-17T17:47:36.986Z,47.95
2022-12-17T17:50:07.124Z,47.81
2022-12-17T17:52:35.680Z,47.50
2022-12-17T17:55:03.925Z,47.83
2022-12-17T17:57:32.166Z,47.72
2022-12-17T18:00:00.384Z,47.87
2022-12-17T18:02:28.772Z,47.96
2022-12-17T18:04:59.896Z,47.77
2022-12-17T18:07:29.915Z,48.06
2022-12-17T18:09:59.873Z,47.76
2022-12-17T18:12:45.440Z,47.92
2022-12-17T18:15:15.742Z,47.94
2022-12-17T18:17:45.449Z,47.88
2022-12-17T18:20:14.233Z,48.10
2022-12-17T18:22:46.445Z,47.91
2022-12-17T18:25:16.915Z,47.99
2022-12-17T18:27:45.744Z,48.21
2022-12-17T18:30:16.572Z,48.28
2022-12-17T18:32:45.168Z,48.14
2022-12-17T18:35:13.563Z,47.98
2022-12-17T18:37:43.443Z,48.48
2022-12-17T18:40:12.593Z,48.15
2022-12-17T18:42:58.619Z,48.35
2022-12-17T18:45:26.829Z,48.67
2022-12-17T18:47:54.956Z,48.46
2022-12-17T18:50:23.201Z,48.43
2022-12-17T18:52:53.314Z,48.49
2022-12-17T18:55:21.711Z,48.43
2022-12-17T18:57:49.804Z,48.70
2022-12-17T19:00:18.363Z,48.94
2022-12-17T19:02:46.598Z,48.98
2022-12-17T19:05:15.038Z,48.87
2022-12-17T19:07:43.766Z,49.27
2022-12-17T19:10:14.180Z,49.08
2022-12-17T19:12:42.409Z,49.11
2022-12-17T19:15:12.044Z,49.25
2022-12-17T19:17:40.089Z,49.22
2022-12-17T19:20:09.412Z,49.28
2022-12-17T19:22:37.541Z,49.12
2022-12-17T19:25:06.188Z,49.31
2022-12-17T19:27:35.850Z,48.88
2022-12-17T19:30:03.868Z,49.26
2022-12-17T19:32:32.246Z,49.05
2022-12-17T19:35:00.802Z,48.95
2022-12-17T19:37:28.875Z,48.97
2022-12-17T19:39:57.190Z,48.83
2022-12-17T19:42:33.420Z,49.08
2022-12-17T19:45:07.290Z,49.10
2022-12-17T19:47:35.366Z,49.11
2022-12-17T19:50:03.738Z,49.34
2022-12-17T19:52:31.818Z,48.80
2022-12-17T19:54:59.967Z,48.96
2022-12-17T19:57:27.969Z,49.10
2022-12-17T19:59:56.012Z,48.93
2022-12-17T20:02:30.988Z,49.05
2022-12-17T20:05:00.505Z,49.06
2022-12-17T20:07:28.565Z,49.02
2022-12-17T20:09:56.765Z,48.94
2022-12-17T20:12:24.844Z,48.84
2022-12-17T20:14:52.982Z,49.27
2022-12-17T20:17:21.493Z,49.01
2022-12-17T20:19:53.421Z,49.27
2022-12-17T20:22:23.251Z,49.09
2022-12-17T20:24:51.666Z,48.99
2022-12-17T20:27:19.797Z,49.11
2022-12-17T20:29:48.156Z,49.06
2022-12-17T20:32:19.572Z,49.27
2022-12-17T20:34:48.000Z,49.55
2022-12-17T20:37:17.603Z,49.30
2022-12-17T20:39:45.706Z,49.23
2022-12-17T20:42:13.851Z,49.17
2022-12-17T20:44:42.044Z,49.37
2022-12-17T20:47:10.122Z,49.28
2022-12-17T20:49:38.307Z,49.10
2022-12-17T20:52:06.564Z,49.47
2022-12-17T20:54:36.448Z,49.37
2022-12-17T20:57:04.643Z,49.14
2022-12-17T20:59:33.177Z,49.01
2022-12-17T21:02:01.366Z,49.23
2022-12-17T21:04:29.459Z,49.28
2022-12-17T21:06:57.833Z,49.22
2022-12-17T21:09:26.014Z,49.21
2022-12-17T21:11:55.681Z,49.35
2022-12-17T21:14:23.780Z,49.19
2022-12-17T21:16:51.922Z,49.27
2022-12-17T21:19:21.030Z,49.27
2022-12-17T21:21:52.188Z,49.39
2022-12-17T21:24:20.361Z,49.33
2022-12-17T21:26:48.543Z,49.50
2022-12-17T21:29:18.545Z,49.31
2022-12-17T21:31:48.483Z,49.21
2022-12-17T21:34:22.678Z,49.01
2022-12-17T21:36:51.575Z,49.40
2022-12-17T21:39:20.992Z,49.58
2022-12-17T21:42:10.881Z,49.26
2022-12-17T21:44:40.569Z,49.20
2022-12-17T21:47:11.526Z,49.35
2022-12-17T21:49:40.587Z,49.43
2022-12-17T21:52:10.335Z,49.34
2022-12-17T21:54:39.565Z,49.52
2022-12-17T21:57:08.882Z,49.40
2022-12-17T21:59:55.545Z,49.43
2022-12-17T22:02:26.582Z,49.60
2022-12-17T22:10:46.460Z,49.66
2022-12-17T22:13:39.440Z,49.28
2022-12-17T22:16:10.296Z,49.35
2022-12-17T22:18:39.313Z,49.50
2022-12-17T22:21:08.092Z,49.77
2022-12-17T22:23:38.214Z,49.47
2022-12-17T22:26:11.058Z,49.86
2022-12-17T22:28:39.659Z,49.86
2022-12-17T22:31:30.868Z,49.89
2022-12-17T22:34:38.646Z,49.95
2022-12-17T22:39:58.562Z,49.57
2022-12-17T22:44:30.853Z,49.89
2022-12-17T22:44:42.077Z,49.35
2022-12-17T22:45:32.934Z,49.18
2022-12-17T22:48:06.481Z,49.49
2022-12-17T22:50:37.809Z,49.52
2022-12-17T22:53:21.181Z,49.72
2022-12-17T22:55:54.719Z,49.71
2022-12-17T22:58:25.112Z,49.47
2022-12-17T23:01:06.472Z,49.57
2022-12-17T23:07:30.061Z,49.57
2022-12-17T23:13:21.039Z,49.60
2022-12-17T23:15:49.804Z,49.57
2022-12-17T23:18:19.390Z,49.68
2022-12-17T23:20:48.481Z,49.94
2022-12-17T23:23:17.176Z,49.97
2022-12-17T23:25:45.665Z,49.52
2022-12-17T23:28:15.566Z,49.58
2022-12-17T23:30:43.638Z,49.54
2022-12-17T23:33:11.807Z,49.65
2022-12-17T23:35:40.161Z,49.60
2022-12-17T23:38:08.336Z,49.48
2022-12-17T23:40:36.728Z,49.61
2022-12-17T23:43:05.053Z,49.61
2022-12-17T23:45:34.553Z,49.60
2022-12-17T23:48:02.929Z,49.56
2022-12-17T23:50:31.022Z,49.84
2022-12-17T23:52:59.544Z,49.98
2022-12-17T23:55:28.160Z,49.72
2022-12-17T23:57:56.939Z,49.77
